sensor_id;sensor_type;location;lat;lon;timestamp;temperature;humidity
25050;DHT22;13046;49.814;9.918;2023-04-25T07:09:27;11.90;99.90
25050;DHT22;13046;49.814;9.918;2023-04-25T07:11:54;9.40;99.90
25050;DHT22;13046;49.814;9.918;2023-04-25T07:14:20;9.30;99.90
25050;DHT22;13046;49.814;9.918;2023-04-25T07:16:45;9.20;99.90
25050;DHT22;13046;49.814;9.918;2023-04-25T07:19:12;9.30;99.90
25050;DHT22;13046;49.814;9.918;2023-04-25T07:21:37;9.40;99.90
25050;DHT22;13046;49.814;9.918;2023-04-25T07:24:05;9.30;99.90
25050;DHT22;13046;49.814;9.918;2023-04-25T07:26:34;9.30;99.90
25050;DHT22;13046;49.814;9.918;2023-04-25T07:36:37;9.30;99.90
25050;DHT22;13046;49.814;9.918;2023-04-25T07:39:03;9.10;99.90
25050;DHT22;13046;49.814;9.918;2023-04-25T08:01:08;9.30;99.90
25050;DHT22;13046;49.814;9.918;2023-04-25T08:03:34;11.30;99.90
25050;DHT22;13046;49.814;9.918;2023-04-25T08:06:01;10.90;99.90
25050;DHT22;13046;49.814;9.918;2023-04-25T08:08:30;11.00;99.90
25050;DHT22;13046;49.814;9.918;2023-04-25T08:10:56;11.00;99.90
25050;DHT22;13046;49.814;9.918;2023-04-25T08:13:22;10.80;99.90
25050;DHT22;13046;49.814;9.918;2023-04-25T08:15:47;10.60;99.90
25050;DHT22;13046;49.814;9.918;2023-04-25T08:18:13;10.30;99.90
25050;DHT22;13046;49.814;9.918;2023-04-25T08:20:39;10.30;99.90
25050;DHT22;13046;49.814;9.918;2023-04-25T08:23:07;10.50;99.90
25050;DHT22;13046;49.814;9.918;2023-04-25T08:25:42;10.30;99.90
25050;DHT22;13046;49.814;9.918;2023-04-25T08:28:10;10.30;99.90
25050;DHT22;13046;49.814;9.918;2023-04-25T08:35:45;10.20;99.90
25050;DHT22;13046;49.814;9.918;2023-04-25T08:38:11;11.50;99.90
25050;DHT22;13046;49.814;9.918;2023-04-25T08:40:38;11.60;99.90
25050;DHT22;13046;49.814;9.918;2023-04-25T08:43:09;12.00;99.90
25050;DHT22;13046;49.814;9.918;2023-04-25T08:45:41;12.20;99.90
25050;DHT22;13046;49.814;9.918;2023-04-25T08:48:11;12.20;99.90
25050;DHT22;13046;49.814;9.918;2023-04-25T08:50:51;12.20;99.90
25050;DHT22;13046;49.814;9.918;2023-04-25T08:53:30;12.40;99.90
25050;DHT22;13046;49.814;9.918;2023-04-25T08:55:59;12.50;99.90
25050;DHT22;13046;49.814;9.918;2023-04-25T08:58:25;11.80;99.90
25050;DHT22;13046;49.814;9.918;2023-04-25T09:00:51;11.80;99.90
25050;DHT22;13046;49.814;9.918;2023-04-25T09:03:19;12.50;99.90
25050;DHT22;13046;49.814;9.918;2023-04-25T09:05:47;12.90;99.90
25050;DHT22;13046;49.814;9.918;2023-04-25T09:08:15;13.10;99.90
25050;DHT22;13046;49.814;9.918;2023-04-25T09:10:41;12.80;99.90
25050;DHT22;13046;49.814;9.918;2023-04-25T09:13:09;12.60;99.90
25050;DHT22;13046;49.814;9.918;2023-04-25T09:15:57;12.00;99.90
25050;DHT22;13046;49.814;9.918;2023-04-25T09:18:47;11.70;99.90
25050;DHT22;13046;49.814;9.918;2023-04-25T09:21:13;11.40;99.90
25050;DHT22;13046;49.814;9.918;2023-04-25T09:23:45;11.80;99.90
25050;DHT22;13046;49.814;9.918;2023-04-25T09:28:40;12.00;99.90
25050;DHT22;13046;49.814;9.918;2023-04-25T09:31:05;11.80;99.90
25050;DHT22;13046;49.814;9.918;2023-04-25T09:33:36;11.80;99.90
25050;DHT22;13046;49.814;9.918;2023-04-25T09:36:05;11.80;99.90
25050;DHT22;13046;49.814;9.918;2023-04-25T09:41:23;11.50;99.90
25050;DHT22;13046;49.814;9.918;2023-04-25T09:43:49;11.20;99.90
25050;DHT22;13046;49.814;9.918;2023-04-25T09:48:50;11.40;99.90
25050;DHT22;13046;49.814;9.918;2023-04-25T09:51:18;11.20;99.90
25050;DHT22;13046;49.814;9.918;2023-04-25T09:53:46;11.20;99.90
25050;DHT22;13046;49.814;9.918;2023-04-25T09:56:38;11.20;99.90
25050;DHT22;13046;49.814;9.918;2023-04-25T09:59:07;11.20;99.90
25050;DHT22;13046;49.814;9.918;2023-04-25T10:01:35;11.10;99.90
25050;DHT22;13046;49.814;9.918;2023-04-25T10:14:16;10.70;99.90
25050;DHT22;13046;49.814;9.918;2023-04-25T10:16:42;11.80;99.90
25050;DHT22;13046;49.814;9.918;2023-04-25T10:19:09;12.50;99.90
25050;DHT22;13046;49.814;9.918;2023-04-25T10:21:40;13.00;99.90
25050;DHT22;13046;49.814;9.918;2023-04-25T10:24:07;12.90;99.90
25050;DHT22;13046;49.814;9.918;2023-04-25T10:26:33;12.30;99.90
25050;DHT22;13046;49.814;9.918;2023-04-25T10:29:01;12.10;99.90
25050;DHT22;13046;49.814;9.918;2023-04-25T10:31:27;12.00;99.90
25050;DHT22;13046;49.814;9.918;2023-04-25T10:33:54;12.20;99.90
25050;DHT22;13046;49.814;9.918;2023-04-25T10:36:24;12.50;99.90
25050;DHT22;13046;49.814;9.918;2023-04-25T10:38:52;12.60;99.90
25050;DHT22;13046;49.814;9.918;2023-04-25T10:41:19;12.90;99.90
25050;DHT22;13046;49.814;9.918;2023-04-25T10:43:49;13.00;99.90
25050;DHT22;13046;49.814;9.918;2023-04-25T10:46:30;13.10;99.90
25050;DHT22;13046;49.814;9.918;2023-04-25T10:49:01;13.40;99.90
25050;DHT22;13046;49.814;9.918;2023-04-25T10:51:32;12.80;99.90
25050;DHT22;13046;49.814;9.918;2023-04-25T10:54:06;13.10;99.90
25050;DHT22;13046;49.814;9.918;2023-04-25T10:56:32;13.00;99.90
25050;DHT22;13046;49.814;9.918;2023-04-25T10:59:08;13.00;99.90
25050;DHT22;13046;49.814;9.918;2023-04-25T11:01:43;12.80;99.90
25050;DHT22;13046;49.814;9.918;2023-04-25T11:04:29;12.40;99.90
25050;DHT22;13046;49.814;9.918;2023-04-25T11:09:24;12.40;99.90
25050;DHT22;13046;49.814;9.918;2023-04-25T11:11:56;12.20;99.90
25050;DHT22;13046;49.814;9.918;2023-04-25T11:14:23;11.90;99.90
25050;DHT22;13046;49.814;9.918;2023-04-25T11:16:55;11.90;99.90
25050;DHT22;13046;49.814;9.918;2023-04-25T11:19:22;12.00;99.90
25050;DHT22;13046;49.814;9.918;2023-04-25T11:21:48;12.10;99.90
25050;DHT22;13046;49.814;9.918;2023-04-25T11:24:16;12.00;99.90
25050;DHT22;13046;49.814;9.918;2023-04-25T11:26:43;12.00;99.90
25050;DHT22;13046;49.814;9.918;2023-04-25T11:29:09;12.10;99.90
25050;DHT22;13046;49.814;9.918;2023-04-25T11:31:34;12.10;99.90
25050;DHT22;13046;49.814;9.918;2023-04-25T11:34:00;12.20;99.90
25050;DHT22;13046;49.814;9.918;2023-04-25T11:36:26;12.50;99.90
25050;DHT22;13046;49.814;9.918;2023-04-25T11:38:52;12.70;99.90
25050;DHT22;13046;49.814;9.918;2023-04-25T11:41:19;12.60;99.90
25050;DHT22;13046;49.814;9.918;2023-04-25T11:43:45;12.30;99.90
25050;DHT22;13046;49.814;9.918;2023-04-25T11:46:11;12.30;99.90
25050;DHT22;13046;49.814;9.918;2023-04-25T11:48:41;12.20;99.90
25050;DHT22;13046;49.814;9.918;2023-04-25T11:51:07;12.40;99.90
25050;DHT22;13046;49.814;9.918;2023-04-25T11:53:33;12.60;99.90
25050;DHT22;13046;49.814;9.918;2023-04-25T11:55:59;12.60;99.90
25050;DHT22;13046;49.814;9.918;2023-04-25T11:58:26;12.70;99.90
25050;DHT22;13046;49.814;9.918;2023-04-25T12:00:51;12.90;99.90
25050;DHT22;13046;49.814;9.918;2023-04-25T12:03:18;13.10;99.90
25050;DHT22;13046;49.814;9.918;2023-04-25T12:05:45;13.00;99.90
25050;DHT22;13046;49.814;9.918;2023-04-25T12:08:15;13.00;99.90
25050;DHT22;13046;49.814;9.918;2023-04-25T12:10:42;12.50;99.90
25050;DHT22;13046;49.814;9.918;2023-04-25T12:13:21;12.40;99.90
25050;DHT22;13046;49.814;9.918;2023-04-25T12:15:48;12.40;99.90
25050;DHT22;13046;49.814;9.918;2023-04-25T12:18:14;12.40;99.90
25050;DHT22;13046;49.814;9.918;2023-04-25T12:20:41;12.10;99.90
25050;DHT22;13046;49.814;9.918;2023-04-25T12:23:07;11.80;99.90
25050;DHT22;13046;49.814;9.918;2023-04-25T12:25:43;11.50;99.90
25050;DHT22;13046;49.814;9.918;2023-04-25T12:28:19;11.60;99.90
25050;DHT22;13046;49.814;9.918;2023-04-25T12:31:05;11.70;99.90
25050;DHT22;13046;49.814;9.918;2023-04-25T12:33:32;11.60;99.90
25050;DHT22;13046;49.814;9.918;2023-04-25T12:35:59;11.70;99.90
25050;DHT22;13046;49.814;9.918;2023-04-25T12:38:30;11.60;99.90
25050;DHT22;13046;49.814;9.918;2023-04-25T12:40:59;11.50;99.90
25050;DHT22;13046;49.814;9.918;2023-04-25T12:43:25;11.50;99.90
25050;DHT22;13046;49.814;9.918;2023-04-25T12:45:52;11.60;99.90
25050;DHT22;13046;49.814;9.918;2023-04-25T12:48:19;11.70;99.90
25050;DHT22;13046;49.814;9.918;2023-04-25T12:50:45;11.60;99.90
25050;DHT22;13046;49.814;9.918;2023-04-25T12:53:15;11.90;99.90
25050;DHT22;13046;49.814;9.918;2023-04-25T12:55:41;11.70;99.90
25050;DHT22;13046;49.814;9.918;2023-04-25T12:58:07;11.60;99.90
25050;DHT22;13046;49.814;9.918;2023-04-25T13:00:33;12.00;99.90
25050;DHT22;13046;49.814;9.918;2023-04-25T13:02:59;12.10;99.90
25050;DHT22;13046;49.814;9.918;2023-04-25T13:05:25;12.20;99.90
25050;DHT22;13046;49.814;9.918;2023-04-25T13:07:51;12.50;99.90
25050;DHT22;13046;49.814;9.918;2023-04-25T13:10:18;12.50;99.90
25050;DHT22;13046;49.814;9.918;2023-04-25T13:12:43;12.20;99.90
25050;DHT22;13046;49.814;9.918;2023-04-25T13:15:10;11.80;99.90
25050;DHT22;13046;49.814;9.918;2023-04-25T13:17:37;11.60;99.90
25050;DHT22;13046;49.814;9.918;2023-04-25T13:20:05;11.40;99.90
25050;DHT22;13046;49.814;9.918;2023-04-25T13:22:34;11.40;99.90
25050;DHT22;13046;49.814;9.918;2023-04-25T13:25:02;11.30;99.90
25050;DHT22;13046;49.814;9.918;2023-04-25T13:27:28;11.30;99.90
25050;DHT22;13046;49.814;9.918;2023-04-25T13:29:54;11.40;99.90
25050;DHT22;13046;49.814;9.918;2023-04-25T13:32:19;11.50;99.90
25050;DHT22;13046;49.814;9.918;2023-04-25T13:34:45;11.50;99.90
25050;DHT22;13046;49.814;9.918;2023-04-25T13:37:11;11.60;99.90
25050;DHT22;13046;49.814;9.918;2023-04-25T13:39:36;12.00;99.90
25050;DHT22;13046;49.814;9.918;2023-04-25T13:42:02;12.40;99.90
25050;DHT22;13046;49.814;9.918;2023-04-25T13:44:28;12.60;99.90
25050;DHT22;13046;49.814;9.918;2023-04-25T13:46:54;12.60;99.90
25050;DHT22;13046;49.814;9.918;2023-04-25T13:49:20;12.40;99.90
25050;DHT22;13046;49.814;9.918;2023-04-25T13:51:45;12.20;99.90
25050;DHT22;13046;49.814;9.918;2023-04-25T13:54:11;12.00;99.90
25050;DHT22;13046;49.814;9.918;2023-04-25T13:56:37;12.00;99.90
25050;DHT22;13046;49.814;9.918;2023-04-25T13:59:02;12.00;99.90
25050;DHT22;13046;49.814;9.918;2023-04-25T14:01:28;12.00;99.90
25050;DHT22;13046;49.814;9.918;2023-04-25T14:03:56;12.10;99.90
25050;DHT22;13046;49.814;9.918;2023-04-25T14:06:22;12.00;99.90
25050;DHT22;13046;49.814;9.918;2023-04-25T14:13:45;11.60;99.90
25050;DHT22;13046;49.814;9.918;2023-04-25T14:18:36;11.80;99.90
25050;DHT22;13046;49.814;9.918;2023-04-25T14:21:02;11.60;99.90
25050;DHT22;13046;49.814;9.918;2023-04-25T14:23:28;11.70;99.90
25050;DHT22;13046;49.814;9.918;2023-04-25T14:25:54;11.70;99.90
25050;DHT22;13046;49.814;9.918;2023-04-25T14:28:19;11.40;99.90
25050;DHT22;13046;49.814;9.918;2023-04-25T14:30:45;11.60;99.90
25050;DHT22;13046;49.814;9.918;2023-04-25T14:33:11;11.70;99.90
25050;DHT22;13046;49.814;9.918;2023-04-25T14:35:37;11.80;99.90
25050;DHT22;13046;49.814;9.918;2023-04-25T14:38:03;12.10;99.90
25050;DHT22;13046;49.814;9.918;2023-04-25T14:40:28;12.50;99.90
25050;DHT22;13046;49.814;9.918;2023-04-25T14:42:54;12.60;99.90
25050;DHT22;13046;49.814;9.918;2023-04-25T14:45:20;12.20;99.90
25050;DHT22;13046;49.814;9.918;2023-04-25T14:47:45;12.20;99.90
25050;DHT22;13046;49.814;9.918;2023-04-25T14:50:11;12.10;99.90
25050;DHT22;13046;49.814;9.918;2023-04-25T14:52:37;11.80;99.90
25050;DHT22;13046;49.814;9.918;2023-04-25T14:55:03;11.70;99.90
25050;DHT22;13046;49.814;9.918;2023-04-25T14:57:33;11.70;99.90
25050;DHT22;13046;49.814;9.918;2023-04-25T14:59:59;11.80;99.90
25050;DHT22;13046;49.814;9.918;2023-04-25T15:02:25;11.90;99.90
25050;DHT22;13046;49.814;9.918;2023-04-25T15:04:53;11.80;99.90
25050;DHT22;13046;49.814;9.918;2023-04-25T15:07:18;11.80;99.90
25050;DHT22;13046;49.814;9.918;2023-04-25T15:09:44;11.60;99.90
25050;DHT22;13046;49.814;9.918;2023-04-25T15:12:10;11.40;99.90
25050;DHT22;13046;49.814;9.918;2023-04-25T15:14:36;11.60;99.90
25050;DHT22;13046;49.814;9.918;2023-04-25T15:17:01;11.80;99.90
25050;DHT22;13046;49.814;9.918;2023-04-25T15:19:27;11.90;99.90
25050;DHT22;13046;49.814;9.918;2023-04-25T15:21:53;12.00;99.90
25050;DHT22;13046;49.814;9.918;2023-04-25T15:24:19;12.00;99.90
25050;DHT22;13046;49.814;9.918;2023-04-25T15:26:45;12.20;99.90
25050;DHT22;13046;49.814;9.918;2023-04-25T15:29:11;12.60;99.90
25050;DHT22;13046;49.814;9.918;2023-04-25T15:31:37;12.70;99.90
25050;DHT22;13046;49.814;9.918;2023-04-25T15:34:03;12.90;99.90
25050;DHT22;13046;49.814;9.918;2023-04-25T15:36:29;12.50;99.90
25050;DHT22;13046;49.814;9.918;2023-04-25T15:38:56;12.50;99.90
25050;DHT22;13046;49.814;9.918;2023-04-25T15:41:23;12.50;99.90
25050;DHT22;13046;49.814;9.918;2023-04-25T15:43:49;12.90;99.90
25050;DHT22;13046;49.814;9.918;2023-04-25T15:46:14;13.00;99.90
25050;DHT22;13046;49.814;9.918;2023-04-25T15:48:40;12.60;99.90
25050;DHT22;13046;49.814;9.918;2023-04-25T15:51:06;12.40;99.90
25050;DHT22;13046;49.814;9.918;2023-04-25T15:53:31;12.40;99.90
25050;DHT22;13046;49.814;9.918;2023-04-25T15:55:57;12.20;99.90
25050;DHT22;13046;49.814;9.918;2023-04-25T15:58:23;12.20;99.90
25050;DHT22;13046;49.814;9.918;2023-04-25T16:00:48;11.90;99.90
25050;DHT22;13046;49.814;9.918;2023-04-25T16:03:16;11.70;99.90
25050;DHT22;13046;49.814;9.918;2023-04-25T16:05:41;11.60;99.90
25050;DHT22;13046;49.814;9.918;2023-04-25T16:08:07;11.50;99.90
25050;DHT22;13046;49.814;9.918;2023-04-25T16:10:33;11.30;99.90
25050;DHT22;13046;49.814;9.918;2023-04-25T16:12:59;11.40;99.90
25050;DHT22;13046;49.814;9.918;2023-04-25T16:15:24;11.70;99.90
25050;DHT22;13046;49.814;9.918;2023-04-25T16:17:50;12.00;99.90
25050;DHT22;13046;49.814;9.918;2023-04-25T16:20:16;12.20;99.90
25050;DHT22;13046;49.814;9.918;2023-04-25T16:22:42;12.30;99.90
25050;DHT22;13046;49.814;9.918;2023-04-25T16:25:09;12.10;99.90
25050;DHT22;13046;49.814;9.918;2023-04-25T16:27:35;12.00;99.90
25050;DHT22;13046;49.814;9.918;2023-04-25T16:30:05;11.80;99.90
25050;DHT22;13046;49.814;9.918;2023-04-25T16:32:32;11.80;99.90
25050;DHT22;13046;49.814;9.918;2023-04-25T16:34:58;11.60;99.90
25050;DHT22;13046;49.814;9.918;2023-04-25T16:37:24;11.40;99.90
25050;DHT22;13046;49.814;9.918;2023-04-25T16:39:50;11.40;99.90
25050;DHT22;13046;49.814;9.918;2023-04-25T16:42:16;11.50;99.90
25050;DHT22;13046;49.814;9.918;2023-04-25T16:44:41;11.30;99.90
25050;DHT22;13046;49.814;9.918;2023-04-25T16:47:07;11.30;99.90
25050;DHT22;13046;49.814;9.918;2023-04-25T16:49:33;11.40;99.90
25050;DHT22;13046;49.814;9.918;2023-04-25T16:51:58;11.40;99.90
25050;DHT22;13046;49.814;9.918;2023-04-25T16:54:24;11.60;99.90
25050;DHT22;13046;49.814;9.918;2023-04-25T16:56:50;11.60;99.90
25050;DHT22;13046;49.814;9.918;2023-04-25T16:59:17;11.50;99.90
25050;DHT22;13046;49.814;9.918;2023-04-25T17:01:42;11.50;99.90
25050;DHT22;13046;49.814;9.918;2023-04-25T17:04:08;11.40;99.90
25050;DHT22;13046;49.814;9.918;2023-04-25T17:06:33;11.20;99.90
25050;DHT22;13046;49.814;9.918;2023-04-25T17:09:00;11.10;99.90
25050;DHT22;13046;49.814;9.918;2023-04-25T17:11:25;11.10;99.90
25050;DHT22;13046;49.814;9.918;2023-04-25T17:13:51;11.00;99.90
25050;DHT22;13046;49.814;9.918;2023-04-25T17:16:20;11.00;99.90
25050;DHT22;13046;49.814;9.918;2023-04-25T17:18:48;11.10;99.90
25050;DHT22;13046;49.814;9.918;2023-04-25T17:21:15;11.00;99.90
25050;DHT22;13046;49.814;9.918;2023-04-25T17:23:41;11.00;99.90
25050;DHT22;13046;49.814;9.918;2023-04-25T17:26:13;11.00;99.90
25050;DHT22;13046;49.814;9.918;2023-04-25T17:28:39;11.10;99.90
25050;DHT22;13046;49.814;9.918;2023-04-25T17:31:07;11.10;99.90
25050;DHT22;13046;49.814;9.918;2023-04-25T17:33:33;11.10;99.90
25050;DHT22;13046;49.814;9.918;2023-04-25T17:35:58;11.10;99.90
25050;DHT22;13046;49.814;9.918;2023-04-25T17:38:24;11.00;99.90
25050;DHT22;13046;49.814;9.918;2023-04-25T17:40:50;10.70;99.90
25050;DHT22;13046;49.814;9.918;2023-04-25T17:43:15;10.70;99.90
25050;DHT22;13046;49.814;9.918;2023-04-25T17:45:41;10.70;99.90
25050;DHT22;13046;49.814;9.918;2023-04-25T17:48:07;10.70;99.90
25050;DHT22;13046;49.814;9.918;2023-04-25T17:50:32;10.70;99.90
25050;DHT22;13046;49.814;9.918;2023-04-25T17:52:59;10.70;99.90
25050;DHT22;13046;49.814;9.918;2023-04-25T17:55:27;10.60;99.90
25050;DHT22;13046;49.814;9.918;2023-04-25T17:57:54;10.60;99.90
25050;DHT22;13046;49.814;9.918;2023-04-25T18:00:20;10.60;99.90
25050;DHT22;13046;49.814;9.918;2023-04-25T18:02:46;10.60;99.90
25050;DHT22;13046;49.814;9.918;2023-04-25T18:05:13;10.50;99.90
25050;DHT22;13046;49.814;9.918;2023-04-25T18:07:40;10.60;99.90
25050;DHT22;13046;49.814;9.918;2023-04-25T18:10:07;10.60;99.90
25050;DHT22;13046;49.814;9.918;2023-04-25T18:12:34;10.60;99.90
25050;DHT22;13046;49.814;9.918;2023-04-25T18:15:01;10.50;99.90
25050;DHT22;13046;49.814;9.918;2023-04-25T18:17:32;10.50;99.90
25050;DHT22;13046;49.814;9.918;2023-04-25T18:19:58;10.50;99.90
25050;DHT22;13046;49.814;9.918;2023-04-25T18:22:26;10.50;99.90
25050;DHT22;13046;49.814;9.918;2023-04-25T18:24:53;10.50;99.90
25050;DHT22;13046;49.814;9.918;2023-04-25T18:27:18;10.40;99.90
25050;DHT22;13046;49.814;9.918;2023-04-25T18:29:44;10.40;99.90
25050;DHT22;13046;49.814;9.918;2023-04-25T18:32:10;10.10;99.90
25050;DHT22;13046;49.814;9.918;2023-04-25T18:34:36;10.10;99.90
25050;DHT22;13046;49.814;9.918;2023-04-25T18:37:02;9.90;99.90
25050;DHT22;13046;49.814;9.918;2023-04-25T18:39:28;9.90;99.90
25050;DHT22;13046;49.814;9.918;2023-04-25T18:41:53;9.90;99.90
25050;DHT22;13046;49.814;9.918;2023-04-25T18:44:22;9.90;99.90
25050;DHT22;13046;49.814;9.918;2023-04-25T18:46:47;9.80;99.90
25050;DHT22;13046;49.814;9.918;2023-04-25T18:49:14;9.80;99.90
25050;DHT22;13046;49.814;9.918;2023-04-25T18:51:40;9.70;99.90
25050;DHT22;13046;49.814;9.918;2023-04-25T18:54:06;9.70;99.90
25050;DHT22;13046;49.814;9.918;2023-04-25T18:56:35;9.70;99.90
25050;DHT22;13046;49.814;9.918;2023-04-25T18:59:01;9.70;99.90
25050;DHT22;13046;49.814;9.918;2023-04-25T19:01:26;9.60;99.90
25050;DHT22;13046;49.814;9.918;2023-04-25T19:03:52;9.60;99.90
25050;DHT22;13046;49.814;9.918;2023-04-25T19:06:25;9.50;99.90
25050;DHT22;13046;49.814;9.918;2023-04-25T19:08:53;9.50;99.90
25050;DHT22;13046;49.814;9.918;2023-04-25T19:11:20;9.50;99.90
25050;DHT22;13046;49.814;9.918;2023-04-25T19:13:47;9.40;99.90
25050;DHT22;13046;49.814;9.918;2023-04-25T19:16:13;9.40;99.90
25050;DHT22;13046;49.814;9.918;2023-04-25T19:18:39;9.20;99.90
25050;DHT22;13046;49.814;9.918;2023-04-25T19:21:05;9.20;99.90
25050;DHT22;13046;49.814;9.918;2023-04-25T19:23:32;9.10;99.90
25050;DHT22;13046;49.814;9.918;2023-04-25T19:25:57;9.10;99.90
25050;DHT22;13046;49.814;9.918;2023-04-25T19:28:24;9.00;99.90
25050;DHT22;13046;49.814;9.918;2023-04-25T19:30:50;9.00;99.90
25050;DHT22;13046;49.814;9.918;2023-04-25T19:33:16;8.90;99.90
25050;DHT22;13046;49.814;9.918;2023-04-25T19:35:42;8.90;99.90
25050;DHT22;13046;49.814;9.918;2023-04-25T19:38:08;8.90;99.90
25050;DHT22;13046;49.814;9.918;2023-04-25T19:40:33;8.90;99.90
25050;DHT22;13046;49.814;9.918;2023-04-25T19:42:59;8.80;99.90
25050;DHT22;13046;49.814;9.918;2023-04-25T19:45:24;8.70;99.90
25050;DHT22;13046;49.814;9.918;2023-04-25T19:47:51;8.80;99.90
25050;DHT22;13046;49.814;9.918;2023-04-25T19:50:17;8.70;99.90
25050;DHT22;13046;49.814;9.918;2023-04-25T19:52:43;8.60;99.90
25050;DHT22;13046;49.814;9.918;2023-04-25T19:55:09;8.50;99.90
25050;DHT22;13046;49.814;9.918;2023-04-25T19:57:35;8.50;99.90
25050;DHT22;13046;49.814;9.918;2023-04-25T20:00:09;8.30;99.90
25050;DHT22;13046;49.814;9.918;2023-04-25T20:02:40;8.20;99.90
25050;DHT22;13046;49.814;9.918;2023-04-25T20:05:07;8.10;99.90
25050;DHT22;13046;49.814;9.918;2023-04-25T20:07:33;7.90;99.90
25050;DHT22;13046;49.814;9.918;2023-04-25T20:14:57;7.90;99.90
25050;DHT22;13046;49.814;9.918;2023-04-25T20:17:23;7.60;99.90
25050;DHT22;13046;49.814;9.918;2023-04-25T20:19:49;7.50;99.90
